TUI87W EDDM-LGIR
Flight info
| Callsign | TUI87W |
|---|---|
| Flight time | 2h 23m |
| Altitude | 37000 |
| Route | VAVOR3E VAVOR M867 RADIZ DCT REKTI DCT NEMEK DCT ELTIB DCT PINDO DCT KEA UL607 GIVIS T514 XAVIS |
| Aircraft | B38M/M-SDE1FGHILORVWXY/HB1 |
Departure
| Time | 2026-05-06 09:24 |
|---|---|
| Airport | Munich Airport (EDDM) |
Arrival
| Time | 2026-05-06 11:47 |
|---|---|
| Airport | Heraklion International Nikos Kazantzakis Airport (LGIR) |
| Time | Latitude | Longitude | Altitude | Speed | Heading |
|---|---|---|---|---|---|
| 2026-05-06 08:40 | 48.35320 | 11.77695 | 1475 ft | 0 kts | 263° |
| 2026-05-06 09:14 | 48.35321 | 11.77698 | 1488 ft | 2 kts | 263° |
| 2026-05-06 09:14 | 48.35323 | 11.77730 | 1482 ft | 3 kts | 263° |
| 2026-05-06 09:15 | 48.35331 | 11.77755 | 1474 ft | 4 kts | 194° |
| 2026-05-06 09:15 | 48.35355 | 11.77755 | 1480 ft | 4 kts | 173° |
| 2026-05-06 09:15 | 48.35366 | 11.77753 | 1485 ft | 0 kts | 173° |
| 2026-05-06 09:18 | 48.35351 | 11.77755 | 1480 ft | 5 kts | 174° |
| 2026-05-06 09:18 | 48.35282 | 11.77768 | 1484 ft | 15 kts | 173° |
| 2026-05-06 09:18 | 48.35152 | 11.77790 | 1479 ft | 22 kts | 173° |
| 2026-05-06 09:19 | 48.34992 | 11.77819 | 1483 ft | 24 kts | 173° |
| 2026-05-06 09:19 | 48.34868 | 11.77853 | 1477 ft | 16 kts | 156° |
| 2026-05-06 09:19 | 48.34759 | 11.77885 | 1488 ft | 17 kts | 174° |
| 2026-05-06 09:19 | 48.34680 | 11.77912 | 1477 ft | 10 kts | 138° |
| 2026-05-06 09:20 | 48.34672 | 11.78018 | 1488 ft | 11 kts | 83° |
| 2026-05-06 09:20 | 48.34682 | 11.78150 | 1476 ft | 15 kts | 84° |
| 2026-05-06 09:20 | 48.34696 | 11.78338 | 1480 ft | 22 kts | 83° |
| 2026-05-06 09:20 | 48.34717 | 11.78597 | 1488 ft | 28 kts | 83° |
| 2026-05-06 09:21 | 48.34742 | 11.78906 | 1479 ft | 31 kts | 79° |
| 2026-05-06 09:21 | 48.34766 | 11.79229 | 1488 ft | 31 kts | 84° |
| 2026-05-06 09:21 | 48.34790 | 11.79540 | 1488 ft | 30 kts | 83° |
| 2026-05-06 09:21 | 48.34814 | 11.79850 | 1488 ft | 30 kts | 83° |
| 2026-05-06 09:22 | 48.34829 | 11.80110 | 1488 ft | 17 kts | 101° |
| 2026-05-06 09:22 | 48.34766 | 11.80232 | 1483 ft | 15 kts | 154° |
| 2026-05-06 09:22 | 48.34656 | 11.80256 | 1485 ft | 17 kts | 173° |
| 2026-05-06 09:22 | 48.34536 | 11.80277 | 1488 ft | 17 kts | 174° |
| 2026-05-06 09:23 | 48.34467 | 11.80258 | 1478 ft | 7 kts | 248° |
| 2026-05-06 09:23 | 48.34458 | 11.80162 | 1481 ft | 15 kts | 263° |
| 2026-05-06 09:23 | 48.34417 | 11.79639 | 1488 ft | 86 kts | 263° |
| 2026-05-06 09:23 | 48.34324 | 11.78430 | 1488 ft | 145 kts | 264° |
| 2026-05-06 09:24 | 48.34188 | 11.76729 | 1704 ft | 173 kts | 263° |
| 2026-05-06 09:24 | 48.34059 | 11.74823 | 2186 ft | 190 kts | 264° |
| 2026-05-06 09:24 | 48.33887 | 11.72882 | 2942 ft | 193 kts | 255° |
| 2026-05-06 09:24 | 48.33170 | 11.71127 | 3305 ft | 215 kts | 216° |
| 2026-05-06 09:25 | 48.31726 | 11.70579 | 3924 ft | 211 kts | 170° |
| 2026-05-06 09:25 | 48.30284 | 11.70875 | 4778 ft | 219 kts | 178° |
| 2026-05-06 09:25 | 48.28703 | 11.71087 | 5266 ft | 236 kts | 161° |
| 2026-05-06 09:25 | 48.27261 | 11.72373 | 5887 ft | 242 kts | 144° |
| 2026-05-06 09:26 | 48.25852 | 11.73803 | 6491 ft | 256 kts | 147° |
| 2026-05-06 09:26 | 48.24321 | 11.75328 | 7001 ft | 270 kts | 147° |
| 2026-05-06 09:26 | 48.22761 | 11.76892 | 7807 ft | 271 kts | 148° |
| 2026-05-06 09:26 | 48.21183 | 11.78480 | 8582 ft | 275 kts | 148° |
| 2026-05-06 09:27 | 48.19584 | 11.80092 | 9373 ft | 278 kts | 149° |
| 2026-05-06 09:27 | 48.18002 | 11.81810 | 10063 ft | 287 kts | 140° |
| 2026-05-06 09:27 | 48.16655 | 11.84149 | 10401 ft | 307 kts | 132° |
| 2026-05-06 09:27 | 48.15267 | 11.86687 | 10793 ft | 321 kts | 133° |
| 2026-05-06 09:28 | 48.13826 | 11.89311 | 11353 ft | 329 kts | 133° |
| 2026-05-06 09:28 | 48.12366 | 11.91963 | 12137 ft | 331 kts | 133° |
| 2026-05-06 09:28 | 48.10897 | 11.94629 | 12888 ft | 335 kts | 133° |
| 2026-05-06 09:28 | 48.09409 | 11.97324 | 13669 ft | 337 kts | 133° |
| 2026-05-06 09:29 | 48.07906 | 12.00043 | 14353 ft | 341 kts | 134° |
| 2026-05-06 09:29 | 48.06175 | 12.02440 | 14946 ft | 341 kts | 150° |
| 2026-05-06 09:29 | 48.04200 | 12.04434 | 15623 ft | 345 kts | 149° |
| 2026-05-06 09:29 | 48.02212 | 12.06480 | 16325 ft | 349 kts | 149° |
| 2026-05-06 09:30 | 48.00200 | 12.08540 | 17004 ft | 352 kts | 150° |
| 2026-05-06 09:30 | 47.98164 | 12.10618 | 17693 ft | 356 kts | 150° |
| 2026-05-06 09:30 | 47.96115 | 12.12707 | 18333 ft | 359 kts | 150° |
| 2026-05-06 09:30 | 47.94042 | 12.14819 | 18924 ft | 361 kts | 150° |
| 2026-05-06 09:31 | 47.92112 | 12.17180 | 19510 ft | 367 kts | 144° |
| 2026-05-06 09:31 | 47.90146 | 12.19698 | 20100 ft | 369 kts | 145° |
| 2026-05-06 09:31 | 47.88207 | 12.22148 | 20683 ft | 371 kts | 146° |
| 2026-05-06 09:31 | 47.86196 | 12.24667 | 21261 ft | 374 kts | 146° |
| 2026-05-06 09:32 | 47.84219 | 12.27133 | 21821 ft | 377 kts | 146° |
| 2026-05-06 09:32 | 47.82200 | 12.29645 | 22371 ft | 379 kts | 146° |
| 2026-05-06 09:32 | 47.80169 | 12.32169 | 22926 ft | 382 kts | 147° |
| 2026-05-06 09:32 | 47.78123 | 12.34708 | 23448 ft | 384 kts | 147° |
| 2026-05-06 09:33 | 47.76061 | 12.37266 | 23875 ft | 387 kts | 147° |
| 2026-05-06 09:33 | 47.73988 | 12.39833 | 24281 ft | 389 kts | 147° |
| 2026-05-06 09:33 | 47.71909 | 12.42406 | 24736 ft | 392 kts | 147° |
| 2026-05-06 09:33 | 47.69806 | 12.45007 | 25136 ft | 395 kts | 147° |
| 2026-05-06 09:34 | 47.67685 | 12.47626 | 25550 ft | 397 kts | 147° |
| 2026-05-06 09:34 | 47.65553 | 12.50259 | 25966 ft | 400 kts | 147° |
| 2026-05-06 09:34 | 47.63403 | 12.52911 | 26344 ft | 403 kts | 147° |
| 2026-05-06 09:34 | 47.61308 | 12.55710 | 26779 ft | 406 kts | 144° |
| 2026-05-06 09:35 | 47.59211 | 12.58538 | 27182 ft | 409 kts | 145° |
| 2026-05-06 09:35 | 47.57092 | 12.61377 | 27544 ft | 412 kts | 145° |
| 2026-05-06 09:35 | 47.54961 | 12.64222 | 27874 ft | 413 kts | 145° |
| 2026-05-06 09:35 | 47.52824 | 12.67073 | 28226 ft | 416 kts | 145° |
| 2026-05-06 09:36 | 47.50663 | 12.69950 | 28505 ft | 420 kts | 145° |
| 2026-05-06 09:36 | 47.48481 | 12.72854 | 28826 ft | 423 kts | 145° |
| 2026-05-06 09:36 | 47.46291 | 12.75763 | 29212 ft | 424 kts | 145° |
| 2026-05-06 09:36 | 47.44116 | 12.78649 | 29565 ft | 427 kts | 145° |
| 2026-05-06 09:37 | 47.41897 | 12.81590 | 29877 ft | 430 kts | 145° |
| 2026-05-06 09:37 | 47.39667 | 12.84543 | 30183 ft | 432 kts | 145° |
| 2026-05-06 09:37 | 47.37419 | 12.87514 | 30460 ft | 434 kts | 145° |
| 2026-05-06 09:37 | 47.35173 | 12.90480 | 30656 ft | 437 kts | 145° |
| 2026-05-06 09:38 | 47.32905 | 12.93473 | 30980 ft | 438 kts | 146° |
| 2026-05-06 09:38 | 47.30624 | 12.96478 | 31167 ft | 441 kts | 146° |
| 2026-05-06 09:38 | 47.28338 | 12.99488 | 31512 ft | 442 kts | 146° |
| 2026-05-06 09:38 | 47.26035 | 13.02514 | 31698 ft | 445 kts | 146° |
| 2026-05-06 09:39 | 47.23709 | 13.05566 | 31736 ft | 452 kts | 146° |
| 2026-05-06 09:39 | 47.21355 | 13.08655 | 32045 ft | 452 kts | 145° |
| 2026-05-06 09:39 | 47.19000 | 13.11739 | 32237 ft | 455 kts | 146° |
| 2026-05-06 09:39 | 47.16642 | 13.14822 | 32571 ft | 455 kts | 146° |
| 2026-05-06 09:40 | 47.14309 | 13.17871 | 32893 ft | 455 kts | 146° |
| 2026-05-06 09:40 | 47.11947 | 13.20952 | 33311 ft | 454 kts | 146° |
| 2026-05-06 09:40 | 47.07218 | 13.27111 | 33987 ft | 454 kts | 147° |
| 2026-05-06 09:41 | 47.04847 | 13.30192 | 34175 ft | 457 kts | 147° |
| 2026-05-06 09:41 | 47.02465 | 13.33286 | 34444 ft | 458 kts | 147° |
| 2026-05-06 09:41 | 47.00079 | 13.36379 | 34716 ft | 458 kts | 147° |
| 2026-05-06 09:41 | 46.97701 | 13.39460 | 35042 ft | 457 kts | 146° |
| 2026-05-06 09:42 | 46.95322 | 13.42537 | 35260 ft | 457 kts | 146° |
| 2026-05-06 09:42 | 46.92938 | 13.45618 | 35497 ft | 457 kts | 146° |
| 2026-05-06 09:42 | 46.90552 | 13.48696 | 35813 ft | 457 kts | 146° |
| 2026-05-06 09:42 | 46.88160 | 13.51776 | 36040 ft | 458 kts | 146° |
| 2026-05-06 09:43 | 46.85771 | 13.54852 | 36323 ft | 457 kts | 146° |
| 2026-05-06 09:43 | 46.83382 | 13.57924 | 36584 ft | 457 kts | 145° |
| 2026-05-06 09:43 | 46.80989 | 13.60997 | 36781 ft | 459 kts | 145° |
| 2026-05-06 09:43 | 46.78593 | 13.64068 | 36910 ft | 460 kts | 145° |
| 2026-05-06 09:44 | 46.73787 | 13.70219 | 36911 ft | 458 kts | 145° |
| 2026-05-06 09:44 | 46.69798 | 13.75313 | 36925 ft | 459 kts | 145° |
| 2026-05-06 09:45 | 46.64999 | 13.81430 | 36922 ft | 459 kts | 145° |
| 2026-05-06 09:45 | 46.59420 | 13.88528 | 36908 ft | 459 kts | 144° |
| 2026-05-06 09:46 | 46.55567 | 13.94018 | 36933 ft | 465 kts | 141° |
| 2026-05-06 09:46 | 46.50955 | 14.00591 | 36928 ft | 464 kts | 142° |
| 2026-05-06 09:47 | 46.46340 | 14.07124 | 36945 ft | 464 kts | 142° |
| 2026-05-06 09:47 | 46.41717 | 14.13647 | 36954 ft | 465 kts | 142° |
| 2026-05-06 09:48 | 46.37110 | 14.20137 | 36933 ft | 464 kts | 141° |
| 2026-05-06 09:48 | 46.32473 | 14.26647 | 36979 ft | 464 kts | 141° |
| 2026-05-06 09:49 | 46.27835 | 14.33145 | 36971 ft | 463 kts | 141° |
| 2026-05-06 09:49 | 46.23205 | 14.39615 | 36954 ft | 462 kts | 142° |
| 2026-05-06 09:50 | 46.18578 | 14.46066 | 36968 ft | 463 kts | 142° |
| 2026-05-06 09:50 | 46.13941 | 14.52516 | 36982 ft | 464 kts | 141° |
| 2026-05-06 09:51 | 46.09287 | 14.58971 | 36971 ft | 464 kts | 141° |
| 2026-05-06 09:51 | 46.04645 | 14.65394 | 36987 ft | 463 kts | 141° |
| 2026-05-06 09:52 | 45.99986 | 14.71824 | 36947 ft | 464 kts | 142° |
| 2026-05-06 09:52 | 45.95348 | 14.78212 | 36924 ft | 465 kts | 141° |
| 2026-05-06 09:53 | 45.90680 | 14.84625 | 36954 ft | 463 kts | 141° |
| 2026-05-06 09:53 | 45.86020 | 14.91011 | 36959 ft | 463 kts | 141° |
| 2026-05-06 09:54 | 45.81357 | 14.97385 | 36954 ft | 463 kts | 141° |
| 2026-05-06 09:54 | 45.76689 | 15.03750 | 36957 ft | 463 kts | 141° |
| 2026-05-06 09:55 | 45.72049 | 15.10064 | 36936 ft | 462 kts | 141° |
| 2026-05-06 09:55 | 45.67402 | 15.16370 | 36951 ft | 461 kts | 141° |
| 2026-05-06 09:56 | 45.62742 | 15.22682 | 36936 ft | 461 kts | 141° |
| 2026-05-06 09:56 | 45.58073 | 15.28977 | 36937 ft | 460 kts | 143° |
| 2026-05-06 09:57 | 45.53215 | 15.34900 | 36936 ft | 460 kts | 144° |
| 2026-05-06 09:57 | 45.48374 | 15.40836 | 36949 ft | 461 kts | 144° |
| 2026-05-06 09:58 | 45.43509 | 15.46798 | 36935 ft | 461 kts | 144° |
| 2026-05-06 09:58 | 45.38646 | 15.52743 | 36943 ft | 461 kts | 144° |
| 2026-05-06 09:59 | 45.33815 | 15.58637 | 36935 ft | 461 kts | 144° |
| 2026-05-06 09:59 | 45.28949 | 15.64559 | 36919 ft | 460 kts | 144° |
| 2026-05-06 10:00 | 45.24111 | 15.70432 | 36932 ft | 456 kts | 144° |
| 2026-05-06 10:00 | 45.19281 | 15.76283 | 36939 ft | 457 kts | 144° |
| 2026-05-06 10:01 | 45.14453 | 15.82118 | 36942 ft | 457 kts | 144° |
| 2026-05-06 10:01 | 45.09613 | 15.87953 | 36949 ft | 457 kts | 144° |
| 2026-05-06 10:02 | 45.04815 | 15.93725 | 36942 ft | 454 kts | 144° |
| 2026-05-06 10:02 | 44.99989 | 15.99516 | 36948 ft | 451 kts | 145° |
| 2026-05-06 10:03 | 44.95234 | 16.05211 | 36948 ft | 451 kts | 145° |
| 2026-05-06 10:03 | 44.90445 | 16.10932 | 36957 ft | 451 kts | 145° |
| 2026-05-06 10:04 | 44.85652 | 16.16647 | 36946 ft | 451 kts | 145° |
| 2026-05-06 10:04 | 44.80854 | 16.22354 | 36958 ft | 451 kts | 145° |
| 2026-05-06 10:05 | 44.76063 | 16.28039 | 36952 ft | 451 kts | 145° |
| 2026-05-06 10:05 | 44.71267 | 16.33717 | 36964 ft | 451 kts | 145° |
| 2026-05-06 10:06 | 44.66468 | 16.39387 | 36953 ft | 450 kts | 145° |
| 2026-05-06 10:06 | 44.61661 | 16.45054 | 36947 ft | 451 kts | 145° |
| 2026-05-06 10:07 | 44.56850 | 16.50711 | 36971 ft | 451 kts | 145° |
| 2026-05-06 10:07 | 44.52061 | 16.56331 | 36965 ft | 452 kts | 145° |
| 2026-05-06 10:08 | 44.47237 | 16.61978 | 36982 ft | 452 kts | 145° |
| 2026-05-06 10:08 | 44.42408 | 16.67621 | 36979 ft | 452 kts | 145° |
| 2026-05-06 10:09 | 44.37577 | 16.73257 | 36988 ft | 452 kts | 144° |
| 2026-05-06 10:09 | 44.32735 | 16.78891 | 36982 ft | 453 kts | 144° |
| 2026-05-06 10:10 | 44.27902 | 16.84547 | 36996 ft | 453 kts | 144° |
| 2026-05-06 10:10 | 44.23073 | 16.90210 | 36999 ft | 453 kts | 144° |
| 2026-05-06 10:11 | 44.18245 | 16.95858 | 37002 ft | 453 kts | 144° |
| 2026-05-06 10:11 | 44.13443 | 17.01464 | 37005 ft | 454 kts | 144° |
| 2026-05-06 10:12 | 44.08594 | 17.07112 | 37012 ft | 454 kts | 144° |
| 2026-05-06 10:12 | 44.03750 | 17.12740 | 37019 ft | 454 kts | 144° |
| 2026-05-06 10:13 | 43.98890 | 17.18376 | 37028 ft | 454 kts | 144° |
| 2026-05-06 10:13 | 43.94039 | 17.23989 | 37023 ft | 455 kts | 144° |
| 2026-05-06 10:14 | 43.89153 | 17.29630 | 37038 ft | 457 kts | 144° |
| 2026-05-06 10:14 | 43.84306 | 17.35214 | 37038 ft | 456 kts | 144° |
| 2026-05-06 10:15 | 43.79415 | 17.40835 | 37039 ft | 457 kts | 144° |
| 2026-05-06 10:15 | 43.74519 | 17.46450 | 37039 ft | 457 kts | 144° |
| 2026-05-06 10:16 | 43.69617 | 17.52060 | 37055 ft | 458 kts | 144° |
| 2026-05-06 10:16 | 43.64704 | 17.57670 | 37032 ft | 458 kts | 144° |
| 2026-05-06 10:17 | 43.59801 | 17.63257 | 37043 ft | 458 kts | 144° |
| 2026-05-06 10:17 | 43.54873 | 17.68858 | 37051 ft | 458 kts | 144° |
| 2026-05-06 10:18 | 43.49949 | 17.74445 | 37054 ft | 458 kts | 144° |
| 2026-05-06 10:18 | 43.45015 | 17.80029 | 37048 ft | 460 kts | 144° |
| 2026-05-06 10:19 | 43.40065 | 17.85620 | 37026 ft | 461 kts | 144° |
| 2026-05-06 10:19 | 43.35150 | 17.91159 | 37053 ft | 460 kts | 144° |
| 2026-05-06 10:20 | 43.30196 | 17.96730 | 37048 ft | 460 kts | 144° |
| 2026-05-06 10:20 | 43.25239 | 18.02292 | 37049 ft | 460 kts | 144° |
| 2026-05-06 10:21 | 43.20288 | 18.07836 | 37048 ft | 460 kts | 144° |
| 2026-05-06 10:21 | 43.15331 | 18.13374 | 37050 ft | 460 kts | 144° |
| 2026-05-06 10:22 | 43.10362 | 18.18915 | 37063 ft | 461 kts | 144° |
| 2026-05-06 10:22 | 43.05387 | 18.24448 | 37064 ft | 460 kts | 144° |
| 2026-05-06 10:23 | 43.00421 | 18.29962 | 37072 ft | 461 kts | 144° |
| 2026-05-06 10:23 | 42.95447 | 18.35470 | 37070 ft | 460 kts | 144° |
| 2026-05-06 10:24 | 42.90463 | 18.40978 | 37069 ft | 461 kts | 144° |
| 2026-05-06 10:24 | 42.85477 | 18.46478 | 37080 ft | 462 kts | 144° |
| 2026-05-06 10:25 | 42.80471 | 18.51988 | 37084 ft | 463 kts | 144° |
| 2026-05-06 10:25 | 42.75459 | 18.57491 | 37087 ft | 463 kts | 144° |
| 2026-05-06 10:26 | 42.70445 | 18.62987 | 37085 ft | 463 kts | 144° |
| 2026-05-06 10:26 | 42.65452 | 18.68447 | 37089 ft | 463 kts | 144° |
| 2026-05-06 10:27 | 42.60446 | 18.73909 | 37090 ft | 462 kts | 144° |
| 2026-05-06 10:27 | 42.55427 | 18.79375 | 37090 ft | 463 kts | 144° |
| 2026-05-06 10:28 | 42.50391 | 18.84845 | 37101 ft | 464 kts | 144° |
| 2026-05-06 10:28 | 42.45344 | 18.90318 | 37099 ft | 464 kts | 144° |
| 2026-05-06 10:29 | 42.40301 | 18.95774 | 37100 ft | 465 kts | 144° |
| 2026-05-06 10:29 | 42.35247 | 19.01230 | 37101 ft | 465 kts | 144° |
| 2026-05-06 10:30 | 42.30194 | 19.06675 | 37109 ft | 465 kts | 144° |
| 2026-05-06 10:30 | 42.25143 | 19.12105 | 37101 ft | 464 kts | 144° |
| 2026-05-06 10:31 | 42.20073 | 19.17544 | 37103 ft | 466 kts | 144° |
| 2026-05-06 10:31 | 42.14985 | 19.22991 | 37111 ft | 468 kts | 144° |
| 2026-05-06 10:32 | 42.09890 | 19.28434 | 37094 ft | 467 kts | 144° |
| 2026-05-06 10:32 | 42.04831 | 19.33826 | 37107 ft | 467 kts | 144° |
| 2026-05-06 10:33 | 41.99734 | 19.39249 | 37100 ft | 467 kts | 144° |
| 2026-05-06 10:33 | 41.95495 | 19.43749 | 37095 ft | 467 kts | 144° |
| 2026-05-06 10:34 | 41.90366 | 19.49185 | 37093 ft | 468 kts | 144° |
| 2026-05-06 10:34 | 41.85279 | 19.54565 | 37097 ft | 469 kts | 144° |
| 2026-05-06 10:35 | 41.80153 | 19.59974 | 37105 ft | 468 kts | 144° |
| 2026-05-06 10:35 | 41.75026 | 19.65373 | 37105 ft | 468 kts | 144° |
| 2026-05-06 10:36 | 41.69894 | 19.70766 | 37090 ft | 468 kts | 144° |
| 2026-05-06 10:36 | 41.64764 | 19.76147 | 37101 ft | 468 kts | 144° |
| 2026-05-06 10:37 | 41.59631 | 19.81518 | 37118 ft | 469 kts | 144° |
| 2026-05-06 10:37 | 41.54518 | 19.86857 | 37091 ft | 470 kts | 144° |
| 2026-05-06 10:38 | 41.49361 | 19.92232 | 37089 ft | 470 kts | 144° |
| 2026-05-06 10:38 | 41.44211 | 19.97588 | 37093 ft | 470 kts | 144° |
| 2026-05-06 10:39 | 41.39053 | 20.02941 | 37102 ft | 469 kts | 144° |
| 2026-05-06 10:39 | 41.33899 | 20.08279 | 37105 ft | 469 kts | 144° |
| 2026-05-06 10:40 | 41.28782 | 20.13569 | 37100 ft | 469 kts | 144° |
| 2026-05-06 10:40 | 41.23623 | 20.18890 | 37106 ft | 472 kts | 144° |
| 2026-05-06 10:41 | 41.18432 | 20.24233 | 37097 ft | 470 kts | 144° |
| 2026-05-06 10:41 | 41.13283 | 20.29523 | 37098 ft | 468 kts | 144° |
| 2026-05-06 10:42 | 41.08131 | 20.34804 | 37086 ft | 468 kts | 144° |
| 2026-05-06 10:42 | 41.02982 | 20.40072 | 37093 ft | 468 kts | 144° |
| 2026-05-06 10:43 | 40.97829 | 20.45333 | 37092 ft | 468 kts | 145° |
| 2026-05-06 10:44 | 40.90074 | 20.53231 | 37102 ft | 472 kts | 145° |
| 2026-05-06 10:44 | 40.84880 | 20.58508 | 37094 ft | 471 kts | 145° |
| 2026-05-06 10:45 | 40.79668 | 20.63794 | 37079 ft | 471 kts | 145° |
| 2026-05-06 10:45 | 40.74498 | 20.69027 | 37084 ft | 471 kts | 145° |
| 2026-05-06 10:46 | 40.69289 | 20.74290 | 37076 ft | 471 kts | 145° |
| 2026-05-06 10:46 | 40.64085 | 20.79536 | 37083 ft | 471 kts | 145° |
| 2026-05-06 10:47 | 40.58871 | 20.84783 | 37083 ft | 474 kts | 144° |
| 2026-05-06 10:47 | 40.53629 | 20.90046 | 37082 ft | 474 kts | 145° |
| 2026-05-06 10:48 | 40.48398 | 20.95327 | 37085 ft | 475 kts | 141° |
| 2026-05-06 10:48 | 40.43497 | 21.01149 | 37075 ft | 476 kts | 139° |
| 2026-05-06 10:49 | 40.38626 | 21.07026 | 37082 ft | 475 kts | 139° |
| 2026-05-06 10:49 | 40.33761 | 21.12894 | 37082 ft | 475 kts | 139° |
| 2026-05-06 10:50 | 40.28898 | 21.18749 | 37078 ft | 476 kts | 139° |
| 2026-05-06 10:50 | 40.24011 | 21.24618 | 37081 ft | 477 kts | 139° |
| 2026-05-06 10:51 | 40.19155 | 21.30441 | 37071 ft | 476 kts | 139° |
| 2026-05-06 10:51 | 40.14262 | 21.36294 | 37075 ft | 476 kts | 139° |
| 2026-05-06 10:52 | 40.09377 | 21.42127 | 37057 ft | 476 kts | 139° |
| 2026-05-06 10:52 | 40.04480 | 21.47962 | 37065 ft | 476 kts | 139° |
| 2026-05-06 10:53 | 39.99586 | 21.53781 | 37058 ft | 476 kts | 139° |
| 2026-05-06 10:53 | 39.94686 | 21.59596 | 37060 ft | 476 kts | 139° |
| 2026-05-06 10:54 | 39.89821 | 21.65358 | 37053 ft | 476 kts | 139° |
| 2026-05-06 10:54 | 39.84912 | 21.71160 | 37059 ft | 476 kts | 139° |
| 2026-05-06 10:55 | 39.80007 | 21.76945 | 37059 ft | 476 kts | 139° |
| 2026-05-06 10:55 | 39.75099 | 21.82724 | 37052 ft | 477 kts | 139° |
| 2026-05-06 10:56 | 39.70173 | 21.88510 | 37059 ft | 478 kts | 139° |
| 2026-05-06 10:56 | 39.65231 | 21.94305 | 37051 ft | 479 kts | 139° |
| 2026-05-06 10:57 | 39.60287 | 22.00090 | 37051 ft | 478 kts | 140° |
| 2026-05-06 10:57 | 39.55351 | 22.05854 | 37048 ft | 478 kts | 140° |
| 2026-05-06 10:58 | 39.50412 | 22.11610 | 37049 ft | 478 kts | 140° |
| 2026-05-06 10:58 | 39.45463 | 22.17367 | 37045 ft | 479 kts | 140° |
| 2026-05-06 10:59 | 39.40491 | 22.23138 | 37055 ft | 480 kts | 140° |
| 2026-05-06 10:59 | 39.35554 | 22.28858 | 37045 ft | 480 kts | 140° |
| 2026-05-06 11:00 | 39.30579 | 22.34609 | 37048 ft | 480 kts | 140° |
| 2026-05-06 11:00 | 39.25594 | 22.40361 | 37055 ft | 480 kts | 140° |
| 2026-05-06 11:01 | 39.20611 | 22.46098 | 37073 ft | 480 kts | 140° |
| 2026-05-06 11:01 | 39.15625 | 22.51829 | 37051 ft | 482 kts | 140° |
| 2026-05-06 11:02 | 39.10617 | 22.57575 | 37050 ft | 482 kts | 140° |
| 2026-05-06 11:02 | 39.05602 | 22.63315 | 37049 ft | 481 kts | 140° |
| 2026-05-06 11:03 | 39.00596 | 22.69034 | 37052 ft | 481 kts | 140° |
| 2026-05-06 11:03 | 38.95599 | 22.74732 | 37058 ft | 481 kts | 140° |
| 2026-05-06 11:04 | 38.90591 | 22.80432 | 37058 ft | 482 kts | 140° |
| 2026-05-06 11:04 | 38.85584 | 22.86118 | 37067 ft | 484 kts | 140° |
| 2026-05-06 11:05 | 38.80544 | 22.91831 | 37053 ft | 484 kts | 140° |
| 2026-05-06 11:05 | 38.75499 | 22.97538 | 37064 ft | 483 kts | 140° |
| 2026-05-06 11:06 | 38.70458 | 23.03230 | 37058 ft | 483 kts | 140° |
| 2026-05-06 11:06 | 38.65412 | 23.08917 | 37063 ft | 483 kts | 140° |
| 2026-05-06 11:07 | 38.60367 | 23.14591 | 37064 ft | 484 kts | 140° |
| 2026-05-06 11:07 | 38.55301 | 23.20277 | 37063 ft | 484 kts | 140° |
| 2026-05-06 11:08 | 38.50274 | 23.25909 | 37054 ft | 484 kts | 140° |
| 2026-05-06 11:08 | 38.45208 | 23.31574 | 37060 ft | 484 kts | 140° |
| 2026-05-06 11:09 | 38.40154 | 23.37213 | 37073 ft | 484 kts | 140° |
| 2026-05-06 11:09 | 38.35085 | 23.42859 | 37070 ft | 483 kts | 140° |
| 2026-05-06 11:10 | 38.30006 | 23.48505 | 37066 ft | 485 kts | 140° |
| 2026-05-06 11:10 | 38.24915 | 23.54154 | 37071 ft | 486 kts | 140° |
| 2026-05-06 11:11 | 38.19828 | 23.59788 | 37076 ft | 486 kts | 140° |
| 2026-05-06 11:11 | 38.14730 | 23.65422 | 37073 ft | 486 kts | 140° |
| 2026-05-06 11:12 | 38.09633 | 23.71045 | 37071 ft | 486 kts | 140° |
| 2026-05-06 11:12 | 38.04534 | 23.76659 | 37086 ft | 486 kts | 140° |
| 2026-05-06 11:13 | 37.99436 | 23.82261 | 37080 ft | 488 kts | 140° |
| 2026-05-06 11:13 | 37.94305 | 23.87888 | 37101 ft | 487 kts | 140° |
| 2026-05-06 11:14 | 37.89171 | 23.93508 | 37103 ft | 487 kts | 140° |
| 2026-05-06 11:14 | 37.84048 | 23.99106 | 37111 ft | 487 kts | 140° |
| 2026-05-06 11:15 | 37.78908 | 24.04714 | 37094 ft | 487 kts | 140° |
| 2026-05-06 11:15 | 37.73774 | 24.10305 | 37094 ft | 488 kts | 140° |
| 2026-05-06 11:16 | 37.68618 | 24.15909 | 37084 ft | 489 kts | 140° |
| 2026-05-06 11:16 | 37.63502 | 24.21458 | 37099 ft | 489 kts | 141° |
| 2026-05-06 11:17 | 37.58347 | 24.27040 | 37094 ft | 488 kts | 141° |
| 2026-05-06 11:17 | 37.52899 | 24.32071 | 37111 ft | 485 kts | 150° |
| 2026-05-06 11:18 | 37.47177 | 24.36588 | 37097 ft | 486 kts | 150° |
| 2026-05-06 11:18 | 37.41438 | 24.41097 | 37097 ft | 487 kts | 150° |
| 2026-05-06 11:19 | 37.35678 | 24.45612 | 37106 ft | 487 kts | 150° |
| 2026-05-06 11:19 | 37.29927 | 24.50110 | 37099 ft | 487 kts | 150° |
| 2026-05-06 11:20 | 37.24181 | 24.54598 | 37102 ft | 487 kts | 150° |
| 2026-05-06 11:20 | 37.18434 | 24.59078 | 36182 ft | 488 kts | 150° |
| 2026-05-06 11:20 | 37.15529 | 24.61340 | 35198 ft | 496 kts | 150° |
| 2026-05-06 11:21 | 37.12595 | 24.63621 | 34533 ft | 495 kts | 150° |
| 2026-05-06 11:21 | 37.09694 | 24.65876 | 34171 ft | 486 kts | 150° |
| 2026-05-06 11:21 | 37.07801 | 24.67345 | 33937 ft | 481 kts | 150° |
| 2026-05-06 11:21 | 37.04984 | 24.69531 | 33454 ft | 475 kts | 150° |
| 2026-05-06 11:22 | 37.01267 | 24.72412 | 32679 ft | 472 kts | 150° |
| 2026-05-06 11:22 | 36.98482 | 24.74569 | 32126 ft | 470 kts | 149° |
| 2026-05-06 11:22 | 36.95714 | 24.76710 | 31622 ft | 466 kts | 149° |
| 2026-05-06 11:22 | 36.93854 | 24.78149 | 31288 ft | 464 kts | 149° |
| 2026-05-06 11:23 | 36.91117 | 24.80268 | 30764 ft | 462 kts | 149° |
| 2026-05-06 11:23 | 36.88393 | 24.82377 | 30217 ft | 461 kts | 149° |
| 2026-05-06 11:23 | 36.85671 | 24.84482 | 29639 ft | 458 kts | 149° |
| 2026-05-06 11:23 | 36.83018 | 24.86533 | 29146 ft | 454 kts | 149° |
| 2026-05-06 11:24 | 36.80329 | 24.88610 | 28361 ft | 456 kts | 149° |
| 2026-05-06 11:24 | 36.77611 | 24.90708 | 27428 ft | 463 kts | 149° |
| 2026-05-06 11:24 | 36.74852 | 24.92836 | 26518 ft | 469 kts | 149° |
| 2026-05-06 11:24 | 36.72061 | 24.94987 | 25644 ft | 474 kts | 149° |
| 2026-05-06 11:25 | 36.69237 | 24.97157 | 24797 ft | 478 kts | 149° |
| 2026-05-06 11:25 | 36.66416 | 24.99322 | 24287 ft | 473 kts | 149° |
| 2026-05-06 11:25 | 36.63640 | 25.01452 | 23941 ft | 465 kts | 149° |
| 2026-05-06 11:25 | 36.60914 | 25.03540 | 23456 ft | 459 kts | 149° |
| 2026-05-06 11:26 | 36.58204 | 25.05616 | 22970 ft | 453 kts | 149° |
| 2026-05-06 11:26 | 36.55541 | 25.07653 | 22541 ft | 446 kts | 149° |
| 2026-05-06 11:26 | 36.52903 | 25.09670 | 22096 ft | 440 kts | 149° |
| 2026-05-06 11:26 | 36.50309 | 25.11651 | 21680 ft | 435 kts | 149° |
| 2026-05-06 11:27 | 36.47744 | 25.13609 | 21250 ft | 430 kts | 149° |
| 2026-05-06 11:27 | 36.45208 | 25.15543 | 20832 ft | 425 kts | 149° |
| 2026-05-06 11:27 | 36.42698 | 25.17456 | 20415 ft | 421 kts | 149° |
| 2026-05-06 11:27 | 36.40249 | 25.19320 | 19992 ft | 417 kts | 149° |
| 2026-05-06 11:28 | 36.37782 | 25.21197 | 19590 ft | 414 kts | 149° |
| 2026-05-06 11:28 | 36.35337 | 25.23056 | 19182 ft | 411 kts | 149° |
| 2026-05-06 11:28 | 36.32905 | 25.24903 | 18774 ft | 408 kts | 149° |
| 2026-05-06 11:28 | 36.30501 | 25.26729 | 18366 ft | 403 kts | 149° |
| 2026-05-06 11:29 | 36.28125 | 25.28531 | 17910 ft | 398 kts | 149° |
| 2026-05-06 11:29 | 36.25774 | 25.30313 | 17501 ft | 394 kts | 149° |
| 2026-05-06 11:29 | 36.23441 | 25.32081 | 17015 ft | 393 kts | 149° |
| 2026-05-06 11:29 | 36.21117 | 25.33839 | 16590 ft | 390 kts | 149° |
| 2026-05-06 11:30 | 36.18817 | 25.35580 | 16187 ft | 387 kts | 149° |
| 2026-05-06 11:30 | 36.16532 | 25.37307 | 15799 ft | 383 kts | 149° |
| 2026-05-06 11:30 | 36.14267 | 25.39019 | 15414 ft | 380 kts | 149° |
| 2026-05-06 11:30 | 36.11976 | 25.40627 | 14979 ft | 377 kts | 159° |
| 2026-05-06 11:31 | 36.09494 | 25.41648 | 14586 ft | 374 kts | 163° |
| 2026-05-06 11:31 | 36.07030 | 25.42631 | 14250 ft | 370 kts | 163° |
| 2026-05-06 11:31 | 36.04593 | 25.43610 | 13877 ft | 367 kts | 163° |
| 2026-05-06 11:31 | 36.02204 | 25.44572 | 13465 ft | 364 kts | 163° |
| 2026-05-06 11:32 | 35.99804 | 25.45538 | 13075 ft | 361 kts | 163° |
| 2026-05-06 11:32 | 35.97427 | 25.46494 | 12700 ft | 358 kts | 163° |
| 2026-05-06 11:32 | 35.95075 | 25.47440 | 12329 ft | 354 kts | 163° |
| 2026-05-06 11:32 | 35.92744 | 25.48376 | 11970 ft | 351 kts | 163° |
| 2026-05-06 11:33 | 35.90425 | 25.49307 | 11608 ft | 349 kts | 163° |
| 2026-05-06 11:33 | 35.88128 | 25.50229 | 11248 ft | 346 kts | 162° |
| 2026-05-06 11:33 | 35.85846 | 25.51144 | 10885 ft | 343 kts | 162° |
| 2026-05-06 11:33 | 35.83593 | 25.52047 | 10527 ft | 337 kts | 162° |
| 2026-05-06 11:34 | 35.81391 | 25.52930 | 10202 ft | 328 kts | 162° |
| 2026-05-06 11:34 | 35.79269 | 25.53778 | 10048 ft | 314 kts | 162° |
| 2026-05-06 11:34 | 35.77222 | 25.54597 | 9808 ft | 308 kts | 162° |
| 2026-05-06 11:34 | 35.75181 | 25.55413 | 9452 ft | 308 kts | 162° |
| 2026-05-06 11:35 | 35.73138 | 25.56230 | 9093 ft | 308 kts | 162° |
| 2026-05-06 11:35 | 35.71109 | 25.57040 | 8757 ft | 307 kts | 162° |
| 2026-05-06 11:35 | 35.69145 | 25.58031 | 8394 ft | 305 kts | 146° |
| 2026-05-06 11:35 | 35.67484 | 25.59640 | 8070 ft | 303 kts | 140° |
| 2026-05-06 11:36 | 35.65852 | 25.61260 | 7769 ft | 300 kts | 140° |
| 2026-05-06 11:36 | 35.64228 | 25.62864 | 7455 ft | 299 kts | 140° |
| 2026-05-06 11:36 | 35.62614 | 25.64456 | 7142 ft | 297 kts | 140° |
| 2026-05-06 11:36 | 35.60858 | 25.65764 | 6813 ft | 295 kts | 161° |
| 2026-05-06 11:37 | 35.58863 | 25.65992 | 6465 ft | 286 kts | 192° |
| 2026-05-06 11:37 | 35.57078 | 25.65115 | 6197 ft | 270 kts | 217° |
| 2026-05-06 11:37 | 35.55821 | 25.63558 | 5944 ft | 254 kts | 240° |
| 2026-05-06 11:37 | 35.55036 | 25.61671 | 5724 ft | 243 kts | 245° |
| 2026-05-06 11:38 | 35.54278 | 25.59857 | 5544 ft | 235 kts | 244° |
| 2026-05-06 11:38 | 35.53521 | 25.58095 | 5339 ft | 232 kts | 243° |
| 2026-05-06 11:38 | 35.52759 | 25.56354 | 5080 ft | 231 kts | 243° |
| 2026-05-06 11:38 | 35.51993 | 25.54626 | 4830 ft | 229 kts | 243° |
| 2026-05-06 11:39 | 35.51229 | 25.52913 | 4570 ft | 227 kts | 242° |
| 2026-05-06 11:39 | 35.50472 | 25.51226 | 4331 ft | 224 kts | 242° |
| 2026-05-06 11:39 | 35.49726 | 25.49568 | 4152 ft | 219 kts | 242° |
| 2026-05-06 11:39 | 35.49000 | 25.47956 | 4033 ft | 215 kts | 242° |
| 2026-05-06 11:40 | 35.48275 | 25.46353 | 3945 ft | 215 kts | 242° |
| 2026-05-06 11:40 | 35.47680 | 25.44682 | 3749 ft | 215 kts | 250° |
| 2026-05-06 11:40 | 35.47053 | 25.42981 | 3358 ft | 222 kts | 240° |
| 2026-05-06 11:40 | 35.45914 | 25.41776 | 3205 ft | 217 kts | 206° |
| 2026-05-06 11:41 | 35.44456 | 25.41300 | 3083 ft | 212 kts | 190° |
| 2026-05-06 11:41 | 35.42963 | 25.41185 | 3120 ft | 216 kts | 177° |
| 2026-05-06 11:41 | 35.41496 | 25.41353 | 3021 ft | 208 kts | 174° |
| 2026-05-06 11:41 | 35.40097 | 25.41550 | 2922 ft | 198 kts | 174° |
| 2026-05-06 11:42 | 35.38757 | 25.41734 | 2775 ft | 194 kts | 178° |
| 2026-05-06 11:42 | 35.37475 | 25.41380 | 2596 ft | 189 kts | 210° |
| 2026-05-06 11:42 | 35.36350 | 25.40535 | 2555 ft | 190 kts | 214° |
| 2026-05-06 11:42 | 35.35309 | 25.39547 | 2507 ft | 188 kts | 229° |
| 2026-05-06 11:43 | 35.34487 | 25.38300 | 2513 ft | 188 kts | 235° |
| 2026-05-06 11:43 | 35.33905 | 25.36878 | 2474 ft | 186 kts | 254° |
| 2026-05-06 11:43 | 35.33643 | 25.35324 | 2543 ft | 187 kts | 263° |
| 2026-05-06 11:44 | 35.33462 | 25.32257 | 2489 ft | 168 kts | 271° |
| 2026-05-06 11:44 | 35.33464 | 25.30837 | 2290 ft | 165 kts | 273° |
| 2026-05-06 11:44 | 35.33499 | 25.29438 | 2062 ft | 161 kts | 274° |
| 2026-05-06 11:44 | 35.33548 | 25.28123 | 1785 ft | 148 kts | 275° |
| 2026-05-06 11:45 | 35.33607 | 25.26869 | 1481 ft | 147 kts | 275° |
| 2026-05-06 11:45 | 35.33673 | 25.25632 | 1157 ft | 148 kts | 275° |
| 2026-05-06 11:45 | 35.33746 | 25.24357 | 924 ft | 149 kts | 274° |
| 2026-05-06 11:45 | 35.33740 | 25.23080 | 838 ft | 151 kts | 269° |
| 2026-05-06 11:46 | 35.33771 | 25.21810 | 642 ft | 150 kts | 272° |
| 2026-05-06 11:46 | 35.33811 | 25.20519 | 404 ft | 152 kts | 275° |
| 2026-05-06 11:46 | 35.33892 | 25.19224 | 169 ft | 149 kts | 277° |
| 2026-05-06 11:46 | 35.33971 | 25.18081 | 96 ft | 104 kts | 275° |
| 2026-05-06 11:47 | 35.34018 | 25.17407 | 93 ft | 50 kts | 275° |
| 2026-05-06 11:47 | 35.34016 | 25.17168 | 92 ft | 20 kts | 251° |
| 2026-05-06 11:47 | 35.33975 | 25.17062 | 93 ft | 7 kts | 237° |
| 2026-05-06 11:47 | 35.33945 | 25.17069 | 95 ft | 5 kts | 103° |
| 2026-05-06 11:48 | 35.33938 | 25.17121 | 92 ft | 7 kts | 96° |
| 2026-05-06 11:48 | 35.33933 | 25.17192 | 93 ft | 10 kts | 94° |
| 2026-05-06 11:48 | 35.33928 | 25.17284 | 93 ft | 12 kts | 94° |
| 2026-05-06 11:48 | 35.33919 | 25.17401 | 93 ft | 15 kts | 91° |
| 2026-05-06 11:49 | 35.33909 | 25.17539 | 96 ft | 17 kts | 93° |
| 2026-05-06 11:49 | 35.33879 | 25.17622 | 96 ft | 8 kts | 171° |
| 2026-05-06 11:49 | 35.33844 | 25.17607 | 96 ft | 5 kts | 240° |
| 2026-05-06 11:49 | 35.33852 | 25.17570 | 93 ft | 4 kts | 300° |
| 2026-05-06 11:50 | 35.33868 | 25.17549 | 94 ft | 2 kts | 314° |
| 2026-05-06 11:50 | 35.33870 | 25.17546 | 93 ft | 0 kts | 314° |
| 2026-05-06 11:50 | 35.33873 | 25.17543 | 93 ft | 0 kts | 314° |